sensor_id;sensor_type;location;lat;lon;timestamp;P1;durP1;ratioP1;P2;durP2;ratioP2
45806;SDS011;31507;51.494;7.518;2023-06-04T00:02:18;3.58;;;2.00;;
45806;SDS011;31507;51.494;7.518;2023-06-04T00:04:44;12.88;;;1.95;;
45806;SDS011;31507;51.494;7.518;2023-06-04T00:07:10;1.45;;;1.30;;
45806;SDS011;31507;51.494;7.518;2023-06-04T00:09:35;2.97;;;1.70;;
45806;SDS011;31507;51.494;7.518;2023-06-04T00:12:01;3.97;;;2.30;;
45806;SDS011;31507;51.494;7.518;2023-06-04T00:14:27;3.72;;;1.85;;
45806;SDS011;31507;51.494;7.518;2023-06-04T00:16:53;4.63;;;2.05;;
45806;SDS011;31507;51.494;7.518;2023-06-04T00:19:18;4.28;;;1.88;;
45806;SDS011;31507;51.494;7.518;2023-06-04T00:21:44;7.00;;;1.80;;
45806;SDS011;31507;51.494;7.518;2023-06-04T00:24:10;3.70;;;1.77;;
45806;SDS011;31507;51.494;7.518;2023-06-04T00:26:37;3.50;;;1.88;;
45806;SDS011;31507;51.494;7.518;2023-06-04T00:29:03;4.72;;;1.90;;
45806;SDS011;31507;51.494;7.518;2023-06-04T00:31:28;6.40;;;1.90;;
45806;SDS011;31507;51.494;7.518;2023-06-04T00:33:54;5.85;;;2.50;;
45806;SDS011;31507;51.494;7.518;2023-06-04T00:36:20;3.45;;;2.00;;
45806;SDS011;31507;51.494;7.518;2023-06-04T00:38:45;5.18;;;2.03;;
45806;SDS011;31507;51.494;7.518;2023-06-04T00:41:11;4.20;;;1.80;;
45806;SDS011;31507;51.494;7.518;2023-06-04T00:43:37;6.85;;;1.95;;
45806;SDS011;31507;51.494;7.518;2023-06-04T00:46:02;2.97;;;2.10;;
45806;SDS011;31507;51.494;7.518;2023-06-04T00:48:28;8.32;;;2.00;;
45806;SDS011;31507;51.494;7.518;2023-06-04T00:50:55;4.03;;;2.05;;
45806;SDS011;31507;51.494;7.518;2023-06-04T00:53:22;5.50;;;1.98;;
45806;SDS011;31507;51.494;7.518;2023-06-04T00:55:49;6.43;;;2.20;;
45806;SDS011;31507;51.494;7.518;2023-06-04T00:58:15;1.92;;;1.67;;
45806;SDS011;31507;51.494;7.518;2023-06-04T01:00:44;2.75;;;1.70;;
45806;SDS011;31507;51.494;7.518;2023-06-04T01:03:11;2.75;;;1.77;;
45806;SDS011;31507;51.494;7.518;2023-06-04T01:06:02;3.55;;;2.00;;
45806;SDS011;31507;51.494;7.518;2023-06-04T01:08:30;2.15;;;1.63;;
45806;SDS011;31507;51.494;7.518;2023-06-04T01:10:57;2.65;;;1.55;;
45806;SDS011;31507;51.494;7.518;2023-06-04T01:13:24;2.60;;;2.03;;
45806;SDS011;31507;51.494;7.518;2023-06-04T01:15:49;3.00;;;1.80;;
45806;SDS011;31507;51.494;7.518;2023-06-04T01:18:18;7.35;;;1.92;;
45806;SDS011;31507;51.494;7.518;2023-06-04T01:21:15;5.00;;;1.67;;
45806;SDS011;31507;51.494;7.518;2023-06-04T01:23:47;3.75;;;1.70;;
45806;SDS011;31507;51.494;7.518;2023-06-04T01:26:23;4.18;;;1.70;;
45806;SDS011;31507;51.494;7.518;2023-06-04T01:28:51;2.75;;;1.92;;
45806;SDS011;31507;51.494;7.518;2023-06-04T01:31:18;3.97;;;1.77;;
45806;SDS011;31507;51.494;7.518;2023-06-04T01:33:49;3.92;;;1.50;;
45806;SDS011;31507;51.494;7.518;2023-06-04T01:36:17;5.90;;;1.90;;
45806;SDS011;31507;51.494;7.518;2023-06-04T01:38:42;6.60;;;2.20;;
45806;SDS011;31507;51.494;7.518;2023-06-04T01:41:08;5.82;;;1.60;;
45806;SDS011;31507;51.494;7.518;2023-06-04T01:43:33;4.13;;;2.00;;
45806;SDS011;31507;51.494;7.518;2023-06-04T01:46:00;3.88;;;1.85;;
45806;SDS011;31507;51.494;7.518;2023-06-04T01:48:26;2.13;;;1.75;;
45806;SDS011;31507;51.494;7.518;2023-06-04T01:50:52;5.63;;;1.75;;
45806;SDS011;31507;51.494;7.518;2023-06-04T01:53:18;3.75;;;1.90;;
45806;SDS011;31507;51.494;7.518;2023-06-04T01:55:43;1.88;;;1.73;;
45806;SDS011;31507;51.494;7.518;2023-06-04T01:58:09;5.35;;;2.40;;
45806;SDS011;31507;51.494;7.518;2023-06-04T02:00:35;6.07;;;2.92;;
45806;SDS011;31507;51.494;7.518;2023-06-04T02:03:01;5.53;;;2.85;;
45806;SDS011;31507;51.494;7.518;2023-06-04T02:05:26;5.55;;;2.85;;
45806;SDS011;31507;51.494;7.518;2023-06-04T02:07:52;5.50;;;2.53;;
45806;SDS011;31507;51.494;7.518;2023-06-04T02:10:18;6.60;;;3.05;;
45806;SDS011;31507;51.494;7.518;2023-06-04T02:12:58;6.22;;;3.53;;
45806;SDS011;31507;51.494;7.518;2023-06-04T02:15:27;8.68;;;3.70;;
45806;SDS011;31507;51.494;7.518;2023-06-04T02:18:10;5.15;;;2.78;;
45806;SDS011;31507;51.494;7.518;2023-06-04T02:20:42;7.88;;;3.28;;
45806;SDS011;31507;51.494;7.518;2023-06-04T02:23:09;6.43;;;3.00;;
45806;SDS011;31507;51.494;7.518;2023-06-04T02:25:35;5.20;;;3.00;;
45806;SDS011;31507;51.494;7.518;2023-06-04T02:28:00;4.90;;;2.53;;
45806;SDS011;31507;51.494;7.518;2023-06-04T02:30:26;4.95;;;2.45;;
45806;SDS011;31507;51.494;7.518;2023-06-04T02:32:52;7.63;;;2.63;;
45806;SDS011;31507;51.494;7.518;2023-06-04T02:35:19;6.05;;;2.30;;
45806;SDS011;31507;51.494;7.518;2023-06-04T02:37:47;5.32;;;2.65;;
45806;SDS011;31507;51.494;7.518;2023-06-04T02:40:13;5.88;;;2.22;;
45806;SDS011;31507;51.494;7.518;2023-06-04T02:42:39;3.75;;;2.25;;
45806;SDS011;31507;51.494;7.518;2023-06-04T02:45:05;6.90;;;2.13;;
45806;SDS011;31507;51.494;7.518;2023-06-04T02:47:31;4.25;;;2.38;;
45806;SDS011;31507;51.494;7.518;2023-06-04T02:49:57;9.60;;;2.03;;
45806;SDS011;31507;51.494;7.518;2023-06-04T02:52:22;4.25;;;2.28;;
45806;SDS011;31507;51.494;7.518;2023-06-04T02:54:50;3.67;;;2.28;;
45806;SDS011;31507;51.494;7.518;2023-06-04T02:57:16;3.47;;;2.10;;
45806;SDS011;31507;51.494;7.518;2023-06-04T02:59:41;4.55;;;2.20;;
45806;SDS011;31507;51.494;7.518;2023-06-04T03:02:07;5.22;;;2.40;;
45806;SDS011;31507;51.494;7.518;2023-06-04T03:04:33;2.90;;;2.33;;
45806;SDS011;31507;51.494;7.518;2023-06-04T03:07:01;5.03;;;2.15;;
45806;SDS011;31507;51.494;7.518;2023-06-04T03:09:28;3.67;;;2.25;;
45806;SDS011;31507;51.494;7.518;2023-06-04T03:11:57;2.00;;;1.80;;
45806;SDS011;31507;51.494;7.518;2023-06-04T03:14:25;4.47;;;2.22;;
45806;SDS011;31507;51.494;7.518;2023-06-04T03:16:57;3.90;;;2.47;;
45806;SDS011;31507;51.494;7.518;2023-06-04T03:19:26;3.85;;;2.83;;
45806;SDS011;31507;51.494;7.518;2023-06-04T03:21:52;4.28;;;2.80;;
45806;SDS011;31507;51.494;7.518;2023-06-04T03:24:18;5.10;;;2.83;;
45806;SDS011;31507;51.494;7.518;2023-06-04T03:26:44;5.78;;;2.53;;
45806;SDS011;31507;51.494;7.518;2023-06-04T03:29:10;2.85;;;2.30;;
45806;SDS011;31507;51.494;7.518;2023-06-04T03:31:36;4.35;;;2.70;;
45806;SDS011;31507;51.494;7.518;2023-06-04T03:34:02;3.08;;;2.55;;
45806;SDS011;31507;51.494;7.518;2023-06-04T03:36:29;3.00;;;2.15;;
45806;SDS011;31507;51.494;7.518;2023-06-04T03:39:03;5.75;;;2.70;;
45806;SDS011;31507;51.494;7.518;2023-06-04T03:41:29;3.45;;;2.40;;
45806;SDS011;31507;51.494;7.518;2023-06-04T03:43:55;5.35;;;2.95;;
45806;SDS011;31507;51.494;7.518;2023-06-04T03:46:21;5.00;;;2.15;;
45806;SDS011;31507;51.494;7.518;2023-06-04T03:48:47;4.47;;;3.25;;
45806;SDS011;31507;51.494;7.518;2023-06-04T03:51:12;6.30;;;2.70;;
45806;SDS011;31507;51.494;7.518;2023-06-04T03:53:38;8.05;;;2.70;;
45806;SDS011;31507;51.494;7.518;2023-06-04T03:56:03;6.00;;;2.63;;
45806;SDS011;31507;51.494;7.518;2023-06-04T03:58:29;7.50;;;2.50;;
45806;SDS011;31507;51.494;7.518;2023-06-04T04:00:55;3.17;;;2.35;;
45806;SDS011;31507;51.494;7.518;2023-06-04T04:03:22;5.95;;;2.83;;
45806;SDS011;31507;51.494;7.518;2023-06-04T04:05:47;6.50;;;2.85;;
45806;SDS011;31507;51.494;7.518;2023-06-04T04:08:13;4.50;;;2.97;;
45806;SDS011;31507;51.494;7.518;2023-06-04T04:10:41;7.28;;;2.88;;
45806;SDS011;31507;51.494;7.518;2023-06-04T04:13:06;4.65;;;2.92;;
45806;SDS011;31507;51.494;7.518;2023-06-04T04:15:32;4.85;;;2.63;;
45806;SDS011;31507;51.494;7.518;2023-06-04T04:18:13;5.40;;;3.03;;
45806;SDS011;31507;51.494;7.518;2023-06-04T04:20:41;4.28;;;2.72;;
45806;SDS011;31507;51.494;7.518;2023-06-04T04:23:07;5.03;;;3.08;;
45806;SDS011;31507;51.494;7.518;2023-06-04T04:25:33;7.72;;;3.35;;
45806;SDS011;31507;51.494;7.518;2023-06-04T04:27:59;3.95;;;2.92;;
45806;SDS011;31507;51.494;7.518;2023-06-04T04:30:25;4.90;;;2.72;;
45806;SDS011;31507;51.494;7.518;2023-06-04T04:32:51;3.38;;;2.88;;
45806;SDS011;31507;51.494;7.518;2023-06-04T04:35:16;5.15;;;3.00;;
45806;SDS011;31507;51.494;7.518;2023-06-04T04:37:43;5.05;;;3.05;;
45806;SDS011;31507;51.494;7.518;2023-06-04T04:40:10;5.65;;;2.80;;
45806;SDS011;31507;51.494;7.518;2023-06-04T04:42:37;4.88;;;3.10;;
45806;SDS011;31507;51.494;7.518;2023-06-04T04:45:03;7.43;;;3.25;;
45806;SDS011;31507;51.494;7.518;2023-06-04T04:47:29;5.13;;;3.28;;
45806;SDS011;31507;51.494;7.518;2023-06-04T04:49:55;4.90;;;3.13;;
45806;SDS011;31507;51.494;7.518;2023-06-04T04:52:20;5.35;;;3.25;;
45806;SDS011;31507;51.494;7.518;2023-06-04T04:54:46;16.88;;;3.80;;
45806;SDS011;31507;51.494;7.518;2023-06-04T04:57:12;6.43;;;3.08;;
45806;SDS011;31507;51.494;7.518;2023-06-04T04:59:37;4.65;;;2.75;;
45806;SDS011;31507;51.494;7.518;2023-06-04T05:02:03;4.30;;;2.60;;
45806;SDS011;31507;51.494;7.518;2023-06-04T05:04:29;6.22;;;2.92;;
45806;SDS011;31507;51.494;7.518;2023-06-04T05:06:54;5.35;;;3.28;;
45806;SDS011;31507;51.494;7.518;2023-06-04T05:09:20;4.10;;;3.10;;
45806;SDS011;31507;51.494;7.518;2023-06-04T05:11:45;4.55;;;2.60;;
45806;SDS011;31507;51.494;7.518;2023-06-04T05:14:11;6.72;;;3.22;;
45806;SDS011;31507;51.494;7.518;2023-06-04T05:16:37;5.95;;;3.15;;
45806;SDS011;31507;51.494;7.518;2023-06-04T05:19:03;6.85;;;3.00;;
45806;SDS011;31507;51.494;7.518;2023-06-04T05:21:29;9.63;;;4.38;;
45806;SDS011;31507;51.494;7.518;2023-06-04T05:23:55;5.60;;;3.20;;
45806;SDS011;31507;51.494;7.518;2023-06-04T05:26:21;8.10;;;3.58;;
45806;SDS011;31507;51.494;7.518;2023-06-04T05:28:50;4.80;;;3.05;;
45806;SDS011;31507;51.494;7.518;2023-06-04T05:31:16;6.25;;;4.10;;
45806;SDS011;31507;51.494;7.518;2023-06-04T05:33:43;5.03;;;2.85;;
45806;SDS011;31507;51.494;7.518;2023-06-04T05:36:09;10.75;;;7.60;;
45806;SDS011;31507;51.494;7.518;2023-06-04T05:38:34;4.78;;;3.05;;
45806;SDS011;31507;51.494;7.518;2023-06-04T05:41:00;4.95;;;3.05;;
45806;SDS011;31507;51.494;7.518;2023-06-04T05:43:27;3.50;;;2.53;;
45806;SDS011;31507;51.494;7.518;2023-06-04T05:45:52;4.03;;;2.25;;
45806;SDS011;31507;51.494;7.518;2023-06-04T05:48:18;12.57;;;6.07;;
45806;SDS011;31507;51.494;7.518;2023-06-04T05:50:44;3.90;;;2.83;;
45806;SDS011;31507;51.494;7.518;2023-06-04T05:53:10;6.63;;;3.55;;
45806;SDS011;31507;51.494;7.518;2023-06-04T05:55:35;4.50;;;2.45;;
45806;SDS011;31507;51.494;7.518;2023-06-04T05:58:01;3.25;;;2.50;;
45806;SDS011;31507;51.494;7.518;2023-06-04T06:00:27;3.65;;;2.42;;
45806;SDS011;31507;51.494;7.518;2023-06-04T06:02:52;3.17;;;2.22;;
45806;SDS011;31507;51.494;7.518;2023-06-04T06:05:19;4.32;;;2.53;;
45806;SDS011;31507;51.494;7.518;2023-06-04T06:07:45;7.70;;;2.03;;
45806;SDS011;31507;51.494;7.518;2023-06-04T06:10:11;5.18;;;2.38;;
45806;SDS011;31507;51.494;7.518;2023-06-04T06:12:37;4.90;;;2.10;;
45806;SDS011;31507;51.494;7.518;2023-06-04T06:15:03;2.85;;;2.05;;
45806;SDS011;31507;51.494;7.518;2023-06-04T06:17:29;3.00;;;1.92;;
45806;SDS011;31507;51.494;7.518;2023-06-04T06:19:55;3.33;;;1.95;;
45806;SDS011;31507;51.494;7.518;2023-06-04T06:22:21;3.90;;;2.10;;
45806;SDS011;31507;51.494;7.518;2023-06-04T06:24:47;1.98;;;1.83;;
45806;SDS011;31507;51.494;7.518;2023-06-04T06:27:16;2.63;;;1.95;;
45806;SDS011;31507;51.494;7.518;2023-06-04T06:29:42;3.67;;;1.92;;
45806;SDS011;31507;51.494;7.518;2023-06-04T06:32:09;3.72;;;1.98;;
45806;SDS011;31507;51.494;7.518;2023-06-04T06:34:35;2.75;;;1.73;;
45806;SDS011;31507;51.494;7.518;2023-06-04T06:37:02;6.90;;;1.92;;
45806;SDS011;31507;51.494;7.518;2023-06-04T06:39:28;4.53;;;2.00;;
45806;SDS011;31507;51.494;7.518;2023-06-04T06:41:53;4.35;;;2.08;;
45806;SDS011;31507;51.494;7.518;2023-06-04T06:44:19;2.38;;;1.80;;
45806;SDS011;31507;51.494;7.518;2023-06-04T06:46:44;1.77;;;1.67;;
45806;SDS011;31507;51.494;7.518;2023-06-04T06:49:10;4.20;;;1.80;;
45806;SDS011;31507;51.494;7.518;2023-06-04T06:51:36;4.35;;;2.30;;
45806;SDS011;31507;51.494;7.518;2023-06-04T06:54:01;4.18;;;1.90;;
45806;SDS011;31507;51.494;7.518;2023-06-04T06:56:27;3.67;;;1.70;;
45806;SDS011;31507;51.494;7.518;2023-06-04T06:58:52;4.20;;;2.00;;
45806;SDS011;31507;51.494;7.518;2023-06-04T07:01:18;2.97;;;2.00;;
45806;SDS011;31507;51.494;7.518;2023-06-04T07:03:44;2.35;;;1.90;;
45806;SDS011;31507;51.494;7.518;2023-06-04T07:06:09;3.08;;;1.95;;
45806;SDS011;31507;51.494;7.518;2023-06-04T07:08:35;4.55;;;1.98;;
45806;SDS011;31507;51.494;7.518;2023-06-04T07:11:01;6.50;;;1.83;;
45806;SDS011;31507;51.494;7.518;2023-06-04T07:13:28;3.08;;;2.05;;
45806;SDS011;31507;51.494;7.518;2023-06-04T07:15:57;5.90;;;1.85;;
45806;SDS011;31507;51.494;7.518;2023-06-04T07:18:22;4.07;;;1.88;;
45806;SDS011;31507;51.494;7.518;2023-06-04T07:20:48;2.45;;;2.10;;
45806;SDS011;31507;51.494;7.518;2023-06-04T07:23:14;6.68;;;2.10;;
45806;SDS011;31507;51.494;7.518;2023-06-04T07:25:40;2.33;;;1.90;;
45806;SDS011;31507;51.494;7.518;2023-06-04T07:28:06;3.85;;;1.88;;
45806;SDS011;31507;51.494;7.518;2023-06-04T07:30:31;2.63;;;1.73;;
45806;SDS011;31507;51.494;7.518;2023-06-04T07:32:57;2.13;;;1.88;;
45806;SDS011;31507;51.494;7.518;2023-06-04T07:35:23;9.25;;;1.95;;
45806;SDS011;31507;51.494;7.518;2023-06-04T07:37:49;3.13;;;1.48;;
45806;SDS011;31507;51.494;7.518;2023-06-04T07:40:15;3.22;;;1.63;;
45806;SDS011;31507;51.494;7.518;2023-06-04T07:42:41;1.40;;;1.30;;
45806;SDS011;31507;51.494;7.518;2023-06-04T07:45:07;4.25;;;1.80;;
45806;SDS011;31507;51.494;7.518;2023-06-04T07:47:35;2.20;;;1.75;;
45806;SDS011;31507;51.494;7.518;2023-06-04T07:50:01;5.07;;;1.73;;
45806;SDS011;31507;51.494;7.518;2023-06-04T07:52:28;3.97;;;1.42;;
45806;SDS011;31507;51.494;7.518;2023-06-04T07:54:53;5.43;;;1.70;;
45806;SDS011;31507;51.494;7.518;2023-06-04T07:57:19;2.63;;;1.77;;
45806;SDS011;31507;51.494;7.518;2023-06-04T07:59:44;8.00;;;1.65;;
45806;SDS011;31507;51.494;7.518;2023-06-04T08:02:10;2.08;;;1.40;;
45806;SDS011;31507;51.494;7.518;2023-06-04T08:04:36;3.75;;;1.48;;
45806;SDS011;31507;51.494;7.518;2023-06-04T08:07:01;3.20;;;1.65;;
45806;SDS011;31507;51.494;7.518;2023-06-04T08:09:27;3.22;;;1.90;;
45806;SDS011;31507;51.494;7.518;2023-06-04T08:11:53;4.35;;;1.35;;
45806;SDS011;31507;51.494;7.518;2023-06-04T08:14:18;4.15;;;1.60;;
45806;SDS011;31507;51.494;7.518;2023-06-04T08:16:46;6.03;;;1.85;;
45806;SDS011;31507;51.494;7.518;2023-06-04T08:19:12;3.88;;;1.70;;
45806;SDS011;31507;51.494;7.518;2023-06-04T08:21:38;4.70;;;1.75;;
45806;SDS011;31507;51.494;7.518;2023-06-04T08:24:05;2.42;;;1.60;;
45806;SDS011;31507;51.494;7.518;2023-06-04T08:26:33;10.65;;;2.08;;
45806;SDS011;31507;51.494;7.518;2023-06-04T08:29:02;2.92;;;1.60;;
45806;SDS011;31507;51.494;7.518;2023-06-04T08:31:29;3.20;;;1.80;;
45806;SDS011;31507;51.494;7.518;2023-06-04T08:33:54;5.43;;;1.45;;
45806;SDS011;31507;51.494;7.518;2023-06-04T08:36:20;5.53;;;1.80;;
45806;SDS011;31507;51.494;7.518;2023-06-04T08:38:46;5.22;;;1.90;;
45806;SDS011;31507;51.494;7.518;2023-06-04T08:41:16;4.78;;;1.83;;
45806;SDS011;31507;51.494;7.518;2023-06-04T08:43:51;3.88;;;2.00;;
45806;SDS011;31507;51.494;7.518;2023-06-04T08:46:19;3.72;;;1.98;;
45806;SDS011;31507;51.494;7.518;2023-06-04T08:48:46;5.75;;;1.75;;
45806;SDS011;31507;51.494;7.518;2023-06-04T08:51:12;4.82;;;1.98;;
45806;SDS011;31507;51.494;7.518;2023-06-04T08:53:39;2.78;;;1.77;;
45806;SDS011;31507;51.494;7.518;2023-06-04T08:56:06;4.38;;;1.75;;
45806;SDS011;31507;51.494;7.518;2023-06-04T08:58:32;2.00;;;1.80;;
45806;SDS011;31507;51.494;7.518;2023-06-04T09:01:01;5.05;;;2.47;;
45806;SDS011;31507;51.494;7.518;2023-06-04T09:03:27;6.60;;;1.92;;
45806;SDS011;31507;51.494;7.518;2023-06-04T09:05:57;5.78;;;1.98;;
45806;SDS011;31507;51.494;7.518;2023-06-04T09:08:24;2.50;;;1.73;;
45806;SDS011;31507;51.494;7.518;2023-06-04T09:10:51;3.65;;;2.08;;
45806;SDS011;31507;51.494;7.518;2023-06-04T09:13:21;5.40;;;2.47;;
45806;SDS011;31507;51.494;7.518;2023-06-04T09:16:02;5.45;;;2.38;;
45806;SDS011;31507;51.494;7.518;2023-06-04T09:18:29;3.97;;;2.30;;
45806;SDS011;31507;51.494;7.518;2023-06-04T09:21:02;5.57;;;2.63;;
45806;SDS011;31507;51.494;7.518;2023-06-04T09:23:44;4.68;;;2.35;;
45806;SDS011;31507;51.494;7.518;2023-06-04T09:26:14;7.57;;;2.40;;
45806;SDS011;31507;51.494;7.518;2023-06-04T09:28:45;3.47;;;1.92;;
45806;SDS011;31507;51.494;7.518;2023-06-04T09:31:17;4.97;;;2.13;;
45806;SDS011;31507;51.494;7.518;2023-06-04T09:33:45;6.97;;;2.35;;
45806;SDS011;31507;51.494;7.518;2023-06-04T09:36:13;6.50;;;2.13;;
45806;SDS011;31507;51.494;7.518;2023-06-04T09:38:39;4.90;;;2.60;;
45806;SDS011;31507;51.494;7.518;2023-06-04T09:41:16;5.70;;;2.40;;
45806;SDS011;31507;51.494;7.518;2023-06-04T09:43:44;4.53;;;2.30;;
45806;SDS011;31507;51.494;7.518;2023-06-04T09:48:40;5.38;;;2.20;;
45806;SDS011;31507;51.494;7.518;2023-06-04T09:53:33;6.78;;;2.30;;
45806;SDS011;31507;51.494;7.518;2023-06-04T09:55:59;9.77;;;2.60;;
45806;SDS011;31507;51.494;7.518;2023-06-04T09:58:26;6.63;;;2.35;;
45806;SDS011;31507;51.494;7.518;2023-06-04T10:01:00;2.83;;;2.28;;
45806;SDS011;31507;51.494;7.518;2023-06-04T10:03:31;5.40;;;2.58;;
45806;SDS011;31507;51.494;7.518;2023-06-04T10:06:02;6.13;;;2.63;;
45806;SDS011;31507;51.494;7.518;2023-06-04T10:08:29;9.00;;;2.55;;
45806;SDS011;31507;51.494;7.518;2023-06-04T10:10:59;5.25;;;1.90;;
45806;SDS011;31507;51.494;7.518;2023-06-04T10:13:29;6.53;;;2.13;;
45806;SDS011;31507;51.494;7.518;2023-06-04T10:15:56;6.57;;;2.30;;
45806;SDS011;31507;51.494;7.518;2023-06-04T10:18:23;3.33;;;2.03;;
45806;SDS011;31507;51.494;7.518;2023-06-04T10:20:50;3.75;;;2.10;;
45806;SDS011;31507;51.494;7.518;2023-06-04T10:23:19;6.07;;;1.80;;
45806;SDS011;31507;51.494;7.518;2023-06-04T10:25:47;3.78;;;2.00;;
45806;SDS011;31507;51.494;7.518;2023-06-04T10:28:15;4.95;;;1.83;;
45806;SDS011;31507;51.494;7.518;2023-06-04T10:30:43;9.60;;;1.50;;
45806;SDS011;31507;51.494;7.518;2023-06-04T10:33:08;6.90;;;1.90;;
45806;SDS011;31507;51.494;7.518;2023-06-04T10:35:34;4.80;;;1.80;;
45806;SDS011;31507;51.494;7.518;2023-06-04T10:38:04;1.58;;;1.38;;
45806;SDS011;31507;51.494;7.518;2023-06-04T10:40:34;4.15;;;1.40;;
45806;SDS011;31507;51.494;7.518;2023-06-04T10:43:07;3.95;;;1.60;;
45806;SDS011;31507;51.494;7.518;2023-06-04T10:45:36;6.30;;;1.80;;
45806;SDS011;31507;51.494;7.518;2023-06-04T10:48:06;4.65;;;1.73;;
45806;SDS011;31507;51.494;7.518;2023-06-04T10:50:34;4.38;;;1.63;;
45806;SDS011;31507;51.494;7.518;2023-06-04T10:53:00;3.58;;;1.38;;
45806;SDS011;31507;51.494;7.518;2023-06-04T10:55:30;2.28;;;1.45;;
45806;SDS011;31507;51.494;7.518;2023-06-04T10:58:00;5.13;;;1.45;;
45806;SDS011;31507;51.494;7.518;2023-06-04T11:00:37;5.95;;;1.63;;
45806;SDS011;31507;51.494;7.518;2023-06-04T11:03:07;4.22;;;1.80;;
45806;SDS011;31507;51.494;7.518;2023-06-04T11:08:02;3.88;;;1.92;;
45806;SDS011;31507;51.494;7.518;2023-06-04T11:10:31;1.77;;;1.25;;
45806;SDS011;31507;51.494;7.518;2023-06-04T11:12:59;6.63;;;1.52;;
45806;SDS011;31507;51.494;7.518;2023-06-04T11:15:25;3.47;;;1.50;;
45806;SDS011;31507;51.494;7.518;2023-06-04T11:17:51;6.18;;;1.77;;
45806;SDS011;31507;51.494;7.518;2023-06-04T11:20:18;5.07;;;1.63;;
45806;SDS011;31507;51.494;7.518;2023-06-04T11:22:51;5.47;;;1.63;;
45806;SDS011;31507;51.494;7.518;2023-06-04T11:25:22;4.10;;;1.40;;
45806;SDS011;31507;51.494;7.518;2023-06-04T11:27:49;3.67;;;1.40;;
45806;SDS011;31507;51.494;7.518;2023-06-04T11:30:15;3.30;;;1.55;;
45806;SDS011;31507;51.494;7.518;2023-06-04T11:32:41;3.38;;;1.55;;
45806;SDS011;31507;51.494;7.518;2023-06-04T11:35:07;3.33;;;1.35;;
45806;SDS011;31507;51.494;7.518;2023-06-04T11:37:33;5.53;;;1.90;;
45806;SDS011;31507;51.494;7.518;2023-06-04T11:40:00;5.63;;;1.60;;
45806;SDS011;31507;51.494;7.518;2023-06-04T11:42:28;4.82;;;1.38;;
45806;SDS011;31507;51.494;7.518;2023-06-04T11:44:57;4.82;;;1.40;;
45806;SDS011;31507;51.494;7.518;2023-06-04T11:47:23;2.03;;;1.60;;
45806;SDS011;31507;51.494;7.518;2023-06-04T11:49:56;1.88;;;1.50;;
45806;SDS011;31507;51.494;7.518;2023-06-04T11:52:21;4.00;;;1.60;;
45806;SDS011;31507;51.494;7.518;2023-06-04T11:54:47;4.13;;;1.52;;
45806;SDS011;31507;51.494;7.518;2023-06-04T11:57:13;5.43;;;1.67;;
45806;SDS011;31507;51.494;7.518;2023-06-04T11:59:39;3.65;;;1.40;;
45806;SDS011;31507;51.494;7.518;2023-06-04T12:02:05;4.35;;;1.55;;
45806;SDS011;31507;51.494;7.518;2023-06-04T12:04:33;4.22;;;1.40;;
45806;SDS011;31507;51.494;7.518;2023-06-04T12:06:59;4.78;;;1.35;;
45806;SDS011;31507;51.494;7.518;2023-06-04T12:09:30;1.75;;;1.40;;
45806;SDS011;31507;51.494;7.518;2023-06-04T12:12:00;3.20;;;1.57;;
45806;SDS011;31507;51.494;7.518;2023-06-04T12:14:30;9.57;;;1.80;;
45806;SDS011;31507;51.494;7.518;2023-06-04T12:19:26;7.32;;;1.40;;
45806;SDS011;31507;51.494;7.518;2023-06-04T12:22:02;7.63;;;1.40;;
45806;SDS011;31507;51.494;7.518;2023-06-04T12:24:32;4.60;;;1.45;;
45806;SDS011;31507;51.494;7.518;2023-06-04T12:27:11;4.10;;;1.80;;
45806;SDS011;31507;51.494;7.518;2023-06-04T12:29:37;5.25;;;1.58;;
45806;SDS011;31507;51.494;7.518;2023-06-04T12:32:03;4.45;;;1.40;;
45806;SDS011;31507;51.494;7.518;2023-06-04T12:34:34;7.18;;;1.55;;
45806;SDS011;31507;51.494;7.518;2023-06-04T12:37:00;9.57;;;1.52;;
45806;SDS011;31507;51.494;7.518;2023-06-04T12:39:28;5.88;;;1.60;;
45806;SDS011;31507;51.494;7.518;2023-06-04T12:41:54;3.63;;;1.73;;
45806;SDS011;31507;51.494;7.518;2023-06-04T12:44:20;5.03;;;3.90;;
45806;SDS011;31507;51.494;7.518;2023-06-04T12:46:46;2.85;;;1.40;;
45806;SDS011;31507;51.494;7.518;2023-06-04T12:49:12;5.47;;;1.40;;
45806;SDS011;31507;51.494;7.518;2023-06-04T12:51:37;4.32;;;1.38;;
45806;SDS011;31507;51.494;7.518;2023-06-04T12:54:03;4.80;;;1.13;;
45806;SDS011;31507;51.494;7.518;2023-06-04T12:56:29;2.58;;;1.45;;
45806;SDS011;31507;51.494;7.518;2023-06-04T12:58:56;5.55;;;1.42;;
45806;SDS011;31507;51.494;7.518;2023-06-04T13:01:21;8.23;;;1.70;;
45806;SDS011;31507;51.494;7.518;2023-06-04T13:03:48;2.47;;;1.27;;
45806;SDS011;31507;51.494;7.518;2023-06-04T13:06:15;2.08;;;1.23;;
45806;SDS011;31507;51.494;7.518;2023-06-04T13:08:40;4.97;;;1.45;;
45806;SDS011;31507;51.494;7.518;2023-06-04T13:11:06;4.57;;;1.27;;
45806;SDS011;31507;51.494;7.518;2023-06-04T13:13:33;2.35;;;1.33;;
45806;SDS011;31507;51.494;7.518;2023-06-04T13:15:58;6.38;;;1.58;;
45806;SDS011;31507;51.494;7.518;2023-06-04T13:18:24;3.00;;;1.48;;
45806;SDS011;31507;51.494;7.518;2023-06-04T13:20:49;3.05;;;1.70;;
45806;SDS011;31507;51.494;7.518;2023-06-04T13:23:15;4.50;;;0.95;;
45806;SDS011;31507;51.494;7.518;2023-06-04T13:25:42;3.53;;;1.40;;
45806;SDS011;31507;51.494;7.518;2023-06-04T13:28:08;3.65;;;1.13;;
45806;SDS011;31507;51.494;7.518;2023-06-04T13:30:37;4.07;;;1.70;;
45806;SDS011;31507;51.494;7.518;2023-06-04T13:33:03;2.45;;;1.00;;
45806;SDS011;31507;51.494;7.518;2023-06-04T13:35:29;2.17;;;1.33;;
45806;SDS011;31507;51.494;7.518;2023-06-04T13:37:55;14.05;;;1.58;;
45806;SDS011;31507;51.494;7.518;2023-06-04T13:40:20;2.80;;;1.20;;
45806;SDS011;31507;51.494;7.518;2023-06-04T13:42:46;3.47;;;1.50;;
45806;SDS011;31507;51.494;7.518;2023-06-04T13:45:12;6.13;;;1.58;;
45806;SDS011;31507;51.494;7.518;2023-06-04T13:47:37;5.43;;;1.45;;
45806;SDS011;31507;51.494;7.518;2023-06-04T13:50:03;8.50;;;1.40;;
45806;SDS011;31507;51.494;7.518;2023-06-04T13:52:30;1.48;;;1.33;;
45806;SDS011;31507;51.494;7.518;2023-06-04T13:54:55;8.00;;;1.52;;
45806;SDS011;31507;51.494;7.518;2023-06-04T13:57:24;2.55;;;1.30;;
45806;SDS011;31507;51.494;7.518;2023-06-04T13:59:50;3.97;;;1.40;;
45806;SDS011;31507;51.494;7.518;2023-06-04T14:02:16;2.50;;;1.40;;
45806;SDS011;31507;51.494;7.518;2023-06-04T14:04:42;3.63;;;1.38;;
45806;SDS011;31507;51.494;7.518;2023-06-04T14:07:07;1.58;;;1.30;;
45806;SDS011;31507;51.494;7.518;2023-06-04T14:09:33;11.40;;;1.98;;
45806;SDS011;31507;51.494;7.518;2023-06-04T14:12:00;3.97;;;1.20;;
45806;SDS011;31507;51.494;7.518;2023-06-04T14:14:27;3.45;;;1.20;;
45806;SDS011;31507;51.494;7.518;2023-06-04T14:16:56;2.63;;;1.63;;
45806;SDS011;31507;51.494;7.518;2023-06-04T14:19:22;2.22;;;1.30;;
45806;SDS011;31507;51.494;7.518;2023-06-04T14:21:47;7.55;;;1.60;;
45806;SDS011;31507;51.494;7.518;2023-06-04T14:24:13;4.72;;;1.55;;
45806;SDS011;31507;51.494;7.518;2023-06-04T14:26:39;2.90;;;1.48;;
45806;SDS011;31507;51.494;7.518;2023-06-04T14:29:05;3.83;;;1.50;;
45806;SDS011;31507;51.494;7.518;2023-06-04T14:31:30;2.30;;;1.35;;
45806;SDS011;31507;51.494;7.518;2023-06-04T14:33:56;5.68;;;1.27;;
45806;SDS011;31507;51.494;7.518;2023-06-04T14:36:22;2.85;;;1.52;;
45806;SDS011;31507;51.494;7.518;2023-06-04T14:38:47;3.65;;;1.80;;
45806;SDS011;31507;51.494;7.518;2023-06-04T14:41:14;5.97;;;1.65;;
45806;SDS011;31507;51.494;7.518;2023-06-04T14:43:40;6.97;;;1.95;;
45806;SDS011;31507;51.494;7.518;2023-06-04T14:46:05;4.15;;;2.10;;
45806;SDS011;31507;51.494;7.518;2023-06-04T14:48:31;8.43;;;1.88;;
45806;SDS011;31507;51.494;7.518;2023-06-04T14:50:57;4.18;;;1.83;;
45806;SDS011;31507;51.494;7.518;2023-06-04T14:53:22;5.63;;;1.40;;
45806;SDS011;31507;51.494;7.518;2023-06-04T14:55:48;5.53;;;1.70;;
45806;SDS011;31507;51.494;7.518;2023-06-04T14:58:14;3.90;;;1.60;;